sensor_id;sensor_type;location;lat;lon;timestamp;P1;durP1;ratioP1;P2;durP2;ratioP2
42110;SDS011;27766;52.174;5.456;2023-04-03T00:01:04;5.13;;;0.98;;
42110;SDS011;27766;52.174;5.456;2023-04-03T00:03:32;1.00;;;0.70;;
42110;SDS011;27766;52.174;5.456;2023-04-03T00:06:00;1.17;;;0.85;;
42110;SDS011;27766;52.174;5.456;2023-04-03T00:08:27;1.52;;;0.90;;
42110;SDS011;27766;52.174;5.456;2023-04-03T00:10:57;2.03;;;0.90;;
42110;SDS011;27766;52.174;5.456;2023-04-03T00:13:25;3.13;;;1.17;;
42110;SDS011;27766;52.174;5.456;2023-04-03T00:15:52;2.55;;;1.10;;
42110;SDS011;27766;52.174;5.456;2023-04-03T00:18:20;2.85;;;1.13;;
42110;SDS011;27766;52.174;5.456;2023-04-03T00:20:47;1.27;;;0.93;;
42110;SDS011;27766;52.174;5.456;2023-04-03T00:25:43;1.50;;;1.20;;
42110;SDS011;27766;52.174;5.456;2023-04-03T00:28:11;1.65;;;0.98;;
42110;SDS011;27766;52.174;5.456;2023-04-03T00:30:38;2.05;;;1.48;;
42110;SDS011;27766;52.174;5.456;2023-04-03T00:33:05;2.40;;;1.30;;
42110;SDS011;27766;52.174;5.456;2023-04-03T00:35:33;1.95;;;1.38;;
42110;SDS011;27766;52.174;5.456;2023-04-03T00:38:01;1.45;;;0.95;;
42110;SDS011;27766;52.174;5.456;2023-04-03T00:40:32;1.40;;;0.98;;
42110;SDS011;27766;52.174;5.456;2023-04-03T00:43:15;0.98;;;0.90;;
42110;SDS011;27766;52.174;5.456;2023-04-03T00:45:54;3.95;;;0.82;;
42110;SDS011;27766;52.174;5.456;2023-04-03T00:51:04;2.80;;;1.20;;
42110;SDS011;27766;52.174;5.456;2023-04-03T00:53:35;2.60;;;1.00;;
42110;SDS011;27766;52.174;5.456;2023-04-03T00:58:40;5.45;;;1.60;;
42110;SDS011;27766;52.174;5.456;2023-04-03T01:01:12;2.20;;;1.35;;
42110;SDS011;27766;52.174;5.456;2023-04-03T01:03:43;2.80;;;0.88;;
42110;SDS011;27766;52.174;5.456;2023-04-03T01:06:10;3.40;;;1.38;;
42110;SDS011;27766;52.174;5.456;2023-04-03T01:08:39;3.22;;;1.13;;
42110;SDS011;27766;52.174;5.456;2023-04-03T01:11:06;2.78;;;1.33;;
42110;SDS011;27766;52.174;5.456;2023-04-03T01:13:33;1.35;;;0.90;;
42110;SDS011;27766;52.174;5.456;2023-04-03T01:16:01;3.88;;;1.13;;
42110;SDS011;27766;52.174;5.456;2023-04-03T01:18:30;2.33;;;1.23;;
42110;SDS011;27766;52.174;5.456;2023-04-03T01:23:40;2.88;;;1.48;;
42110;SDS011;27766;52.174;5.456;2023-04-03T01:26:20;4.53;;;1.17;;
42110;SDS011;27766;52.174;5.456;2023-04-03T01:28:48;1.25;;;1.00;;
42110;SDS011;27766;52.174;5.456;2023-04-03T01:34:17;3.22;;;1.10;;
42110;SDS011;27766;52.174;5.456;2023-04-03T01:36:44;2.33;;;1.27;;
42110;SDS011;27766;52.174;5.456;2023-04-03T01:39:11;2.33;;;1.20;;
42110;SDS011;27766;52.174;5.456;2023-04-03T01:41:38;2.00;;;1.00;;
42110;SDS011;27766;52.174;5.456;2023-04-03T01:44:06;2.13;;;1.17;;
42110;SDS011;27766;52.174;5.456;2023-04-03T01:46:33;2.90;;;1.08;;
42110;SDS011;27766;52.174;5.456;2023-04-03T01:49:00;2.95;;;1.30;;
42110;SDS011;27766;52.174;5.456;2023-04-03T01:51:28;2.88;;;1.33;;
42110;SDS011;27766;52.174;5.456;2023-04-03T01:53:55;2.45;;;1.13;;
42110;SDS011;27766;52.174;5.456;2023-04-03T01:56:22;1.35;;;1.25;;
42110;SDS011;27766;52.174;5.456;2023-04-03T01:58:49;3.25;;;1.60;;
42110;SDS011;27766;52.174;5.456;2023-04-03T02:01:16;4.45;;;1.20;;
42110;SDS011;27766;52.174;5.456;2023-04-03T02:03:43;12.07;;;1.55;;
42110;SDS011;27766;52.174;5.456;2023-04-03T02:06:11;2.97;;;1.42;;
42110;SDS011;27766;52.174;5.456;2023-04-03T02:08:38;3.45;;;1.30;;
42110;SDS011;27766;52.174;5.456;2023-04-03T02:11:06;2.13;;;1.30;;
42110;SDS011;27766;52.174;5.456;2023-04-03T02:13:34;1.98;;;1.20;;
42110;SDS011;27766;52.174;5.456;2023-04-03T02:16:06;3.22;;;1.23;;
42110;SDS011;27766;52.174;5.456;2023-04-03T02:18:34;2.97;;;1.48;;
42110;SDS011;27766;52.174;5.456;2023-04-03T02:21:01;3.45;;;1.30;;
42110;SDS011;27766;52.174;5.456;2023-04-03T02:23:28;1.23;;;0.90;;
42110;SDS011;27766;52.174;5.456;2023-04-03T02:26:05;2.38;;;1.20;;
42110;SDS011;27766;52.174;5.456;2023-04-03T02:28:34;5.50;;;1.50;;
42110;SDS011;27766;52.174;5.456;2023-04-03T02:31:01;2.17;;;1.30;;
42110;SDS011;27766;52.174;5.456;2023-04-03T02:33:29;2.53;;;1.50;;
42110;SDS011;27766;52.174;5.456;2023-04-03T02:35:57;1.95;;;1.10;;
42110;SDS011;27766;52.174;5.456;2023-04-03T02:38:24;3.55;;;1.50;;
42110;SDS011;27766;52.174;5.456;2023-04-03T02:40:52;2.58;;;1.25;;
42110;SDS011;27766;52.174;5.456;2023-04-03T02:43:19;3.03;;;1.25;;
42110;SDS011;27766;52.174;5.456;2023-04-03T02:45:46;2.63;;;1.02;;
42110;SDS011;27766;52.174;5.456;2023-04-03T02:48:13;3.30;;;1.58;;
42110;SDS011;27766;52.174;5.456;2023-04-03T02:50:41;2.35;;;1.38;;
42110;SDS011;27766;52.174;5.456;2023-04-03T02:53:08;1.75;;;1.10;;
42110;SDS011;27766;52.174;5.456;2023-04-03T02:55:35;3.85;;;1.90;;
42110;SDS011;27766;52.174;5.456;2023-04-03T02:58:03;2.55;;;1.52;;
42110;SDS011;27766;52.174;5.456;2023-04-03T03:00:30;3.88;;;1.35;;
42110;SDS011;27766;52.174;5.456;2023-04-03T03:02:57;1.63;;;1.05;;
42110;SDS011;27766;52.174;5.456;2023-04-03T03:05:25;4.90;;;1.77;;
42110;SDS011;27766;52.174;5.456;2023-04-03T03:07:52;5.55;;;1.60;;
42110;SDS011;27766;52.174;5.456;2023-04-03T03:10:20;2.25;;;1.45;;
42110;SDS011;27766;52.174;5.456;2023-04-03T03:12:47;1.80;;;1.40;;
42110;SDS011;27766;52.174;5.456;2023-04-03T03:15:14;4.28;;;1.92;;
42110;SDS011;27766;52.174;5.456;2023-04-03T03:17:42;3.72;;;1.33;;
42110;SDS011;27766;52.174;5.456;2023-04-03T03:20:10;5.72;;;2.03;;
42110;SDS011;27766;52.174;5.456;2023-04-03T03:22:38;4.88;;;1.80;;
42110;SDS011;27766;52.174;5.456;2023-04-03T03:25:05;2.63;;;1.23;;
42110;SDS011;27766;52.174;5.456;2023-04-03T03:27:32;2.15;;;1.30;;
42110;SDS011;27766;52.174;5.456;2023-04-03T03:29:59;2.78;;;1.42;;
42110;SDS011;27766;52.174;5.456;2023-04-03T03:32:27;4.38;;;1.90;;
42110;SDS011;27766;52.174;5.456;2023-04-03T03:34:54;3.33;;;1.55;;
42110;SDS011;27766;52.174;5.456;2023-04-03T03:37:21;3.15;;;1.85;;
42110;SDS011;27766;52.174;5.456;2023-04-03T03:39:48;2.30;;;1.55;;
42110;SDS011;27766;52.174;5.456;2023-04-03T03:42:15;3.53;;;1.65;;
42110;SDS011;27766;52.174;5.456;2023-04-03T03:44:43;2.35;;;1.15;;
42110;SDS011;27766;52.174;5.456;2023-04-03T03:47:10;5.57;;;1.73;;
42110;SDS011;27766;52.174;5.456;2023-04-03T03:49:37;3.95;;;1.45;;
42110;SDS011;27766;52.174;5.456;2023-04-03T03:52:04;2.65;;;1.33;;
42110;SDS011;27766;52.174;5.456;2023-04-03T03:54:32;2.33;;;1.42;;
42110;SDS011;27766;52.174;5.456;2023-04-03T03:56:59;4.78;;;1.77;;
42110;SDS011;27766;52.174;5.456;2023-04-03T03:59:26;3.60;;;1.50;;
42110;SDS011;27766;52.174;5.456;2023-04-03T04:01:53;3.40;;;1.63;;
42110;SDS011;27766;52.174;5.456;2023-04-03T04:04:20;4.53;;;1.50;;
42110;SDS011;27766;52.174;5.456;2023-04-03T04:06:48;3.25;;;1.63;;
42110;SDS011;27766;52.174;5.456;2023-04-03T04:09:15;6.40;;;2.08;;
42110;SDS011;27766;52.174;5.456;2023-04-03T04:11:42;2.88;;;1.80;;
42110;SDS011;27766;52.174;5.456;2023-04-03T04:14:09;3.47;;;1.38;;
42110;SDS011;27766;52.174;5.456;2023-04-03T04:16:38;5.35;;;1.70;;
42110;SDS011;27766;52.174;5.456;2023-04-03T04:19:06;3.05;;;1.98;;
42110;SDS011;27766;52.174;5.456;2023-04-03T04:21:34;4.47;;;2.00;;
42110;SDS011;27766;52.174;5.456;2023-04-03T04:24:02;2.60;;;1.65;;
42110;SDS011;27766;52.174;5.456;2023-04-03T04:26:29;6.15;;;1.75;;
42110;SDS011;27766;52.174;5.456;2023-04-03T04:28:56;3.28;;;1.73;;
42110;SDS011;27766;52.174;5.456;2023-04-03T04:31:23;1.75;;;1.42;;
42110;SDS011;27766;52.174;5.456;2023-04-03T04:33:52;5.35;;;2.00;;
42110;SDS011;27766;52.174;5.456;2023-04-03T04:36:19;6.28;;;2.22;;
42110;SDS011;27766;52.174;5.456;2023-04-03T04:38:47;2.83;;;1.67;;
42110;SDS011;27766;52.174;5.456;2023-04-03T04:41:14;3.88;;;1.83;;
42110;SDS011;27766;52.174;5.456;2023-04-03T04:43:42;2.97;;;1.38;;
42110;SDS011;27766;52.174;5.456;2023-04-03T04:46:10;3.47;;;1.40;;
42110;SDS011;27766;52.174;5.456;2023-04-03T04:48:40;2.85;;;1.63;;
42110;SDS011;27766;52.174;5.456;2023-04-03T04:51:07;5.82;;;2.00;;
42110;SDS011;27766;52.174;5.456;2023-04-03T04:53:35;3.85;;;1.70;;
42110;SDS011;27766;52.174;5.456;2023-04-03T04:56:02;2.47;;;1.70;;
42110;SDS011;27766;52.174;5.456;2023-04-03T04:58:29;3.70;;;1.88;;
42110;SDS011;27766;52.174;5.456;2023-04-03T05:01:01;4.25;;;2.38;;
42110;SDS011;27766;52.174;5.456;2023-04-03T05:03:29;4.20;;;1.85;;
42110;SDS011;27766;52.174;5.456;2023-04-03T05:05:57;4.72;;;2.03;;
42110;SDS011;27766;52.174;5.456;2023-04-03T05:08:25;2.95;;;1.50;;
42110;SDS011;27766;52.174;5.456;2023-04-03T05:10:52;6.80;;;1.92;;
42110;SDS011;27766;52.174;5.456;2023-04-03T05:13:22;6.80;;;2.13;;
42110;SDS011;27766;52.174;5.456;2023-04-03T05:15:49;3.38;;;1.70;;
42110;SDS011;27766;52.174;5.456;2023-04-03T05:18:16;6.00;;;2.50;;
42110;SDS011;27766;52.174;5.456;2023-04-03T05:20:43;3.80;;;1.85;;
42110;SDS011;27766;52.174;5.456;2023-04-03T05:23:11;4.10;;;1.58;;
42110;SDS011;27766;52.174;5.456;2023-04-03T05:25:38;4.25;;;1.77;;
42110;SDS011;27766;52.174;5.456;2023-04-03T05:28:05;7.82;;;2.20;;
42110;SDS011;27766;52.174;5.456;2023-04-03T05:30:33;3.55;;;2.05;;
42110;SDS011;27766;52.174;5.456;2023-04-03T05:33:00;8.52;;;2.33;;
42110;SDS011;27766;52.174;5.456;2023-04-03T05:35:27;3.72;;;1.60;;
42110;SDS011;27766;52.174;5.456;2023-04-03T05:37:55;2.53;;;1.95;;
42110;SDS011;27766;52.174;5.456;2023-04-03T05:40:22;5.75;;;2.42;;
42110;SDS011;27766;52.174;5.456;2023-04-03T05:42:49;3.72;;;1.65;;
42110;SDS011;27766;52.174;5.456;2023-04-03T05:45:16;6.15;;;1.95;;
42110;SDS011;27766;52.174;5.456;2023-04-03T05:47:44;5.82;;;2.00;;
42110;SDS011;27766;52.174;5.456;2023-04-03T05:50:11;3.15;;;1.92;;
42110;SDS011;27766;52.174;5.456;2023-04-03T05:52:40;5.28;;;2.20;;
42110;SDS011;27766;52.174;5.456;2023-04-03T05:55:10;3.83;;;2.08;;
42110;SDS011;27766;52.174;5.456;2023-04-03T05:57:37;3.22;;;1.85;;
42110;SDS011;27766;52.174;5.456;2023-04-03T06:00:06;3.85;;;2.17;;
42110;SDS011;27766;52.174;5.456;2023-04-03T06:02:36;4.95;;;2.03;;
42110;SDS011;27766;52.174;5.456;2023-04-03T06:05:03;5.80;;;2.50;;
42110;SDS011;27766;52.174;5.456;2023-04-03T06:07:31;3.85;;;2.10;;
42110;SDS011;27766;52.174;5.456;2023-04-03T06:09:58;9.93;;;1.98;;
42110;SDS011;27766;52.174;5.456;2023-04-03T06:12:26;9.32;;;2.10;;
42110;SDS011;27766;52.174;5.456;2023-04-03T06:14:55;4.00;;;1.88;;
42110;SDS011;27766;52.174;5.456;2023-04-03T06:17:22;6.20;;;1.98;;
42110;SDS011;27766;52.174;5.456;2023-04-03T06:19:50;5.18;;;1.70;;
42110;SDS011;27766;52.174;5.456;2023-04-03T06:22:18;4.35;;;2.50;;
42110;SDS011;27766;52.174;5.456;2023-04-03T06:24:45;3.13;;;2.30;;
42110;SDS011;27766;52.174;5.456;2023-04-03T06:27:13;4.57;;;2.65;;
42110;SDS011;27766;52.174;5.456;2023-04-03T06:29:40;3.67;;;1.48;;
42110;SDS011;27766;52.174;5.456;2023-04-03T06:32:07;2.80;;;1.92;;
42110;SDS011;27766;52.174;5.456;2023-04-03T06:34:35;6.07;;;2.10;;
42110;SDS011;27766;52.174;5.456;2023-04-03T06:37:02;5.80;;;1.80;;
42110;SDS011;27766;52.174;5.456;2023-04-03T06:39:30;2.67;;;1.48;;
42110;SDS011;27766;52.174;5.456;2023-04-03T06:41:57;6.45;;;2.35;;
42110;SDS011;27766;52.174;5.456;2023-04-03T06:44:24;3.92;;;2.00;;
42110;SDS011;27766;52.174;5.456;2023-04-03T06:46:54;4.97;;;1.90;;
42110;SDS011;27766;52.174;5.456;2023-04-03T06:49:21;3.97;;;2.00;;
42110;SDS011;27766;52.174;5.456;2023-04-03T06:51:49;5.32;;;1.70;;
42110;SDS011;27766;52.174;5.456;2023-04-03T06:54:17;5.38;;;2.10;;
42110;SDS011;27766;52.174;5.456;2023-04-03T06:56:44;6.68;;;2.08;;
42110;SDS011;27766;52.174;5.456;2023-04-03T06:59:12;6.07;;;1.55;;
42110;SDS011;27766;52.174;5.456;2023-04-03T07:01:40;3.03;;;1.65;;
42110;SDS011;27766;52.174;5.456;2023-04-03T07:04:08;3.33;;;1.80;;
42110;SDS011;27766;52.174;5.456;2023-04-03T07:06:35;1.42;;;1.33;;
42110;SDS011;27766;52.174;5.456;2023-04-03T07:09:03;7.63;;;1.65;;
42110;SDS011;27766;52.174;5.456;2023-04-03T07:11:30;8.65;;;2.22;;
42110;SDS011;27766;52.174;5.456;2023-04-03T07:14:00;3.30;;;1.38;;
42110;SDS011;27766;52.174;5.456;2023-04-03T07:16:27;5.53;;;1.92;;
42110;SDS011;27766;52.174;5.456;2023-04-03T07:18:57;5.90;;;1.60;;
42110;SDS011;27766;52.174;5.456;2023-04-03T07:21:25;3.08;;;1.48;;
42110;SDS011;27766;52.174;5.456;2023-04-03T07:23:52;1.85;;;1.30;;
42110;SDS011;27766;52.174;5.456;2023-04-03T07:26:20;3.83;;;1.60;;
42110;SDS011;27766;52.174;5.456;2023-04-03T07:28:48;2.20;;;1.48;;
42110;SDS011;27766;52.174;5.456;2023-04-03T07:31:16;4.03;;;1.58;;
42110;SDS011;27766;52.174;5.456;2023-04-03T07:33:45;3.33;;;1.20;;
42110;SDS011;27766;52.174;5.456;2023-04-03T07:36:16;4.40;;;1.65;;
42110;SDS011;27766;52.174;5.456;2023-04-03T07:38:45;4.25;;;1.42;;
42110;SDS011;27766;52.174;5.456;2023-04-03T07:41:16;4.15;;;1.40;;
42110;SDS011;27766;52.174;5.456;2023-04-03T07:43:46;4.75;;;1.60;;
42110;SDS011;27766;52.174;5.456;2023-04-03T07:46:16;7.22;;;1.45;;
42110;SDS011;27766;52.174;5.456;2023-04-03T07:48:44;2.95;;;1.30;;
42110;SDS011;27766;52.174;5.456;2023-04-03T07:51:11;3.72;;;1.45;;
42110;SDS011;27766;52.174;5.456;2023-04-03T07:53:39;3.22;;;1.50;;
42110;SDS011;27766;52.174;5.456;2023-04-03T07:56:07;4.07;;;1.70;;
42110;SDS011;27766;52.174;5.456;2023-04-03T07:58:35;3.30;;;1.10;;
42110;SDS011;27766;52.174;5.456;2023-04-03T08:01:02;1.60;;;1.08;;
42110;SDS011;27766;52.174;5.456;2023-04-03T08:03:30;10.07;;;1.33;;
42110;SDS011;27766;52.174;5.456;2023-04-03T08:06:01;2.35;;;1.08;;
42110;SDS011;27766;52.174;5.456;2023-04-03T08:08:37;2.40;;;1.20;;
42110;SDS011;27766;52.174;5.456;2023-04-03T08:11:04;1.88;;;1.20;;
42110;SDS011;27766;52.174;5.456;2023-04-03T08:13:32;1.02;;;0.73;;
42110;SDS011;27766;52.174;5.456;2023-04-03T08:16:11;2.63;;;1.15;;
42110;SDS011;27766;52.174;5.456;2023-04-03T08:18:39;2.00;;;1.10;;
42110;SDS011;27766;52.174;5.456;2023-04-03T08:21:09;3.90;;;1.20;;
42110;SDS011;27766;52.174;5.456;2023-04-03T08:23:38;1.42;;;0.73;;
42110;SDS011;27766;52.174;5.456;2023-04-03T08:26:09;3.13;;;1.42;;
42110;SDS011;27766;52.174;5.456;2023-04-03T08:28:37;6.63;;;0.80;;
42110;SDS011;27766;52.174;5.456;2023-04-03T08:31:05;4.88;;;1.20;;
42110;SDS011;27766;52.174;5.456;2023-04-03T08:33:34;1.40;;;0.98;;
42110;SDS011;27766;52.174;5.456;2023-04-03T08:36:03;3.70;;;1.20;;
42110;SDS011;27766;52.174;5.456;2023-04-03T08:38:33;1.75;;;0.73;;
42110;SDS011;27766;52.174;5.456;2023-04-03T08:44:00;2.05;;;1.13;;
42110;SDS011;27766;52.174;5.456;2023-04-03T08:46:35;1.83;;;0.77;;
42110;SDS011;27766;52.174;5.456;2023-04-03T08:49:14;1.67;;;0.80;;
42110;SDS011;27766;52.174;5.456;2023-04-03T08:51:51;2.88;;;1.05;;
42110;SDS011;27766;52.174;5.456;2023-04-03T08:57:29;3.20;;;0.80;;
42110;SDS011;27766;52.174;5.456;2023-04-03T09:00:11;2.47;;;0.70;;
42110;SDS011;27766;52.174;5.456;2023-04-03T09:02:43;1.60;;;0.88;;
42110;SDS011;27766;52.174;5.456;2023-04-03T09:05:16;3.80;;;1.10;;
42110;SDS011;27766;52.174;5.456;2023-04-03T09:07:47;0.70;;;0.60;;
42110;SDS011;27766;52.174;5.456;2023-04-03T09:10:32;0.75;;;0.47;;
42110;SDS011;27766;52.174;5.456;2023-04-03T09:13:05;1.52;;;0.60;;
42110;SDS011;27766;52.174;5.456;2023-04-03T09:15:40;1.95;;;0.40;;
42110;SDS011;27766;52.174;5.456;2023-04-03T09:23:22;0.40;;;0.40;;
42110;SDS011;27766;52.174;5.456;2023-04-03T09:26:07;1.08;;;0.60;;
42110;SDS011;27766;52.174;5.456;2023-04-03T09:28:41;0.80;;;0.40;;
42110;SDS011;27766;52.174;5.456;2023-04-03T09:31:21;1.88;;;0.60;;
42110;SDS011;27766;52.174;5.456;2023-04-03T09:36:37;0.65;;;0.38;;
42110;SDS011;27766;52.174;5.456;2023-04-03T09:39:24;1.15;;;0.45;;
42110;SDS011;27766;52.174;5.456;2023-04-03T09:44:31;0.77;;;0.30;;
42110;SDS011;27766;52.174;5.456;2023-04-03T09:47:00;2.47;;;0.55;;
42110;SDS011;27766;52.174;5.456;2023-04-03T09:49:45;1.17;;;0.45;;
42110;SDS011;27766;52.174;5.456;2023-04-03T09:52:19;1.33;;;0.47;;
42110;SDS011;27766;52.174;5.456;2023-04-03T09:54:50;1.10;;;0.50;;
42110;SDS011;27766;52.174;5.456;2023-04-03T09:57:17;1.55;;;0.45;;
42110;SDS011;27766;52.174;5.456;2023-04-03T09:59:47;4.07;;;0.55;;
42110;SDS011;27766;52.174;5.456;2023-04-03T10:02:46;0.40;;;0.30;;
42110;SDS011;27766;52.174;5.456;2023-04-03T10:10:43;0.98;;;0.35;;
42110;SDS011;27766;52.174;5.456;2023-04-03T10:13:18;0.60;;;0.30;;
42110;SDS011;27766;52.174;5.456;2023-04-03T10:21:33;0.30;;;0.20;;
42110;SDS011;27766;52.174;5.456;2023-04-03T10:24:12;0.43;;;0.30;;
42110;SDS011;27766;52.174;5.456;2023-04-03T10:26:45;0.30;;;0.30;;
42110;SDS011;27766;52.174;5.456;2023-04-03T10:34:43;0.20;;;0.20;;
42110;SDS011;27766;52.174;5.456;2023-04-03T10:37:35;0.43;;;0.40;;
42110;SDS011;27766;52.174;5.456;2023-04-03T10:43:59;0.80;;;0.35;;
42110;SDS011;27766;52.174;5.456;2023-04-03T10:46:41;0.82;;;0.40;;
42110;SDS011;27766;52.174;5.456;2023-04-03T10:49:25;0.35;;;0.30;;
42110;SDS011;27766;52.174;5.456;2023-04-03T10:55:00;3.55;;;0.93;;
42110;SDS011;27766;52.174;5.456;2023-04-03T10:57:36;1.35;;;0.30;;
42110;SDS011;27766;52.174;5.456;2023-04-03T11:00:05;0.60;;;0.35;;
42110;SDS011;27766;52.174;5.456;2023-04-03T11:02:42;1.95;;;0.43;;
42110;SDS011;27766;52.174;5.456;2023-04-03T11:05:29;1.42;;;0.47;;
42110;SDS011;27766;52.174;5.456;2023-04-03T11:10:49;0.28;;;0.28;;
42110;SDS011;27766;52.174;5.456;2023-04-03T11:13:22;0.65;;;0.40;;
42110;SDS011;27766;52.174;5.456;2023-04-03T11:16:00;1.42;;;0.57;;
42110;SDS011;27766;52.174;5.456;2023-04-03T11:21:20;0.98;;;0.45;;
42110;SDS011;27766;52.174;5.456;2023-04-03T11:23:54;1.30;;;0.38;;
42110;SDS011;27766;52.174;5.456;2023-04-03T11:26:27;1.83;;;0.70;;
42110;SDS011;27766;52.174;5.456;2023-04-03T11:29:00;1.08;;;0.50;;
42110;SDS011;27766;52.174;5.456;2023-04-03T11:37:13;1.00;;;0.55;;
42110;SDS011;27766;52.174;5.456;2023-04-03T11:39:53;0.60;;;0.40;;
42110;SDS011;27766;52.174;5.456;2023-04-03T11:42:27;0.80;;;0.52;;
42110;SDS011;27766;52.174;5.456;2023-04-03T11:45:16;2.92;;;0.70;;
42110;SDS011;27766;52.174;5.456;2023-04-03T11:47:58;0.85;;;0.40;;
42110;SDS011;27766;52.174;5.456;2023-04-03T11:58:18;1.30;;;0.70;;
42110;SDS011;27766;52.174;5.456;2023-04-03T12:05:56;1.35;;;0.50;;
42110;SDS011;27766;52.174;5.456;2023-04-03T12:13:41;0.60;;;0.35;;
42110;SDS011;27766;52.174;5.456;2023-04-03T12:19:00;0.45;;;0.43;;
42110;SDS011;27766;52.174;5.456;2023-04-03T12:22:06;1.02;;;0.52;;
42110;SDS011;27766;52.174;5.456;2023-04-03T12:24:35;2.13;;;0.55;;
42110;SDS011;27766;52.174;5.456;2023-04-03T12:27:16;1.70;;;0.63;;
42110;SDS011;27766;52.174;5.456;2023-04-03T12:44:08;2.53;;;1.05;;
42110;SDS011;27766;52.174;5.456;2023-04-03T12:46:44;0.93;;;0.60;;
42110;SDS011;27766;52.174;5.456;2023-04-03T12:49:59;5.85;;;0.63;;
42110;SDS011;27766;52.174;5.456;2023-04-03T12:52:17;1.50;;;0.80;;
42110;SDS011;27766;52.174;5.456;2023-04-03T12:54:44;0.90;;;0.50;;
42110;SDS011;27766;52.174;5.456;2023-04-03T12:57:20;2.15;;;0.77;;
42110;SDS011;27766;52.174;5.456;2023-04-03T12:59:50;3.65;;;0.68;;
42110;SDS011;27766;52.174;5.456;2023-04-03T13:02:22;0.77;;;0.45;;
42110;SDS011;27766;52.174;5.456;2023-04-03T13:04:58;1.70;;;0.82;;
42110;SDS011;27766;52.174;5.456;2023-04-03T13:07:32;1.30;;;0.55;;
42110;SDS011;27766;52.174;5.456;2023-04-03T13:12:56;2.22;;;0.70;;
42110;SDS011;27766;52.174;5.456;2023-04-03T13:15:41;1.65;;;0.50;;
42110;SDS011;27766;52.174;5.456;2023-04-03T13:18:29;0.80;;;0.60;;
42110;SDS011;27766;52.174;5.456;2023-04-03T13:21:21;2.85;;;0.80;;
42110;SDS011;27766;52.174;5.456;2023-04-03T13:23:52;1.42;;;0.70;;
42110;SDS011;27766;52.174;5.456;2023-04-03T13:26:37;2.78;;;0.80;;
42110;SDS011;27766;52.174;5.456;2023-04-03T13:29:06;1.35;;;0.68;;
42110;SDS011;27766;52.174;5.456;2023-04-03T13:31:56;1.75;;;0.77;;
42110;SDS011;27766;52.174;5.456;2023-04-03T13:34:26;1.60;;;0.85;;
42110;SDS011;27766;52.174;5.456;2023-04-03T13:37:04;2.10;;;0.95;;
42110;SDS011;27766;52.174;5.456;2023-04-03T13:39:33;1.20;;;0.68;;
42110;SDS011;27766;52.174;5.456;2023-04-03T13:42:14;2.22;;;1.08;;
42110;SDS011;27766;52.174;5.456;2023-04-03T13:44:46;1.67;;;0.70;;
42110;SDS011;27766;52.174;5.456;2023-04-03T13:49:42;1.88;;;0.80;;
42110;SDS011;27766;52.174;5.456;2023-04-03T13:52:27;1.25;;;0.70;;
42110;SDS011;27766;52.174;5.456;2023-04-03T13:55:11;0.90;;;0.57;;
42110;SDS011;27766;52.174;5.456;2023-04-03T14:00:50;1.25;;;0.65;;
42110;SDS011;27766;52.174;5.456;2023-04-03T14:03:21;1.60;;;0.60;;
42110;SDS011;27766;52.174;5.456;2023-04-03T14:05:56;3.17;;;0.80;;
42110;SDS011;27766;52.174;5.456;2023-04-03T14:08:24;2.67;;;0.80;;
42110;SDS011;27766;52.174;5.456;2023-04-03T14:11:14;6.32;;;0.88;;
42110;SDS011;27766;52.174;5.456;2023-04-03T14:13:45;2.78;;;1.10;;
42110;SDS011;27766;52.174;5.456;2023-04-03T14:16:14;1.77;;;0.73;;
42110;SDS011;27766;52.174;5.456;2023-04-03T14:18:45;1.38;;;0.80;;
42110;SDS011;27766;52.174;5.456;2023-04-03T14:21:14;1.60;;;0.63;;
42110;SDS011;27766;52.174;5.456;2023-04-03T14:23:43;1.95;;;0.73;;
42110;SDS011;27766;52.174;5.456;2023-04-03T14:26:13;1.38;;;0.90;;
42110;SDS011;27766;52.174;5.456;2023-04-03T14:28:45;2.28;;;0.80;;
42110;SDS011;27766;52.174;5.456;2023-04-03T14:31:14;2.40;;;1.30;;
42110;SDS011;27766;52.174;5.456;2023-04-03T14:33:42;7.72;;;0.80;;
42110;SDS011;27766;52.174;5.456;2023-04-03T14:36:13;1.17;;;0.75;;
42110;SDS011;27766;52.174;5.456;2023-04-03T14:38:43;1.70;;;1.10;;
42110;SDS011;27766;52.174;5.456;2023-04-03T14:41:12;4.07;;;0.80;;
42110;SDS011;27766;52.174;5.456;2023-04-03T14:43:43;3.53;;;1.00;;
42110;SDS011;27766;52.174;5.456;2023-04-03T14:46:15;2.90;;;0.90;;
42110;SDS011;27766;52.174;5.456;2023-04-03T14:49:21;1.95;;;1.10;;
42110;SDS011;27766;52.174;5.456;2023-04-03T14:51:53;3.22;;;1.05;;
42110;SDS011;27766;52.174;5.456;2023-04-03T14:54:20;2.30;;;0.90;;
42110;SDS011;27766;52.174;5.456;2023-04-03T14:56:55;5.03;;;1.20;;
42110;SDS011;27766;52.174;5.456;2023-04-03T14:59:24;5.32;;;1.48;;
42110;SDS011;27766;52.174;5.456;2023-04-03T15:01:58;1.42;;;0.73;;
42110;SDS011;27766;52.174;5.456;2023-04-03T15:04:26;1.38;;;0.80;;
42110;SDS011;27766;52.174;5.456;2023-04-03T15:06:55;1.75;;;0.85;;
42110;SDS011;27766;52.174;5.456;2023-04-03T15:09:23;6.22;;;0.88;;
42110;SDS011;27766;52.174;5.456;2023-04-03T15:11:53;2.22;;;0.85;;
42110;SDS011;27766;52.174;5.456;2023-04-03T15:14:21;3.95;;;1.55;;
42110;SDS011;27766;52.174;5.456;2023-04-03T15:17:04;1.10;;;0.80;;
42110;SDS011;27766;52.174;5.456;2023-04-03T15:19:38;2.67;;;0.85;;
42110;SDS011;27766;52.174;5.456;2023-04-03T15:22:06;3.42;;;0.88;;
42110;SDS011;27766;52.174;5.456;2023-04-03T15:24:33;2.00;;;0.73;;
42110;SDS011;27766;52.174;5.456;2023-04-03T15:27:00;2.53;;;0.93;;
42110;SDS011;27766;52.174;5.456;2023-04-03T15:29:28;1.23;;;0.80;;
42110;SDS011;27766;52.174;5.456;2023-04-03T15:31:55;2.05;;;1.02;;
42110;SDS011;27766;52.174;5.456;2023-04-03T15:34:22;2.13;;;1.02;;
42110;SDS011;27766;52.174;5.456;2023-04-03T15:36:50;2.00;;;1.02;;
42110;SDS011;27766;52.174;5.456;2023-04-03T15:39:20;2.28;;;1.17;;
42110;SDS011;27766;52.174;5.456;2023-04-03T15:41:47;2.25;;;1.15;;
42110;SDS011;27766;52.174;5.456;2023-04-03T15:44:14;1.63;;;0.75;;
42110;SDS011;27766;52.174;5.456;2023-04-03T15:46:44;2.22;;;1.20;;
42110;SDS011;27766;52.174;5.456;2023-04-03T15:49:12;1.90;;;0.93;;
42110;SDS011;27766;52.174;5.456;2023-04-03T15:51:40;2.00;;;0.95;;
42110;SDS011;27766;52.174;5.456;2023-04-03T15:54:07;0.88;;;0.77;;
42110;SDS011;27766;52.174;5.456;2023-04-03T15:56:34;2.42;;;0.90;;
42110;SDS011;27766;52.174;5.456;2023-04-03T15:59:01;2.60;;;1.30;;
42110;SDS011;27766;52.174;5.456;2023-04-03T16:01:29;2.83;;;1.23;;
42110;SDS011;27766;52.174;5.456;2023-04-03T16:03:56;2.30;;;0.93;;
42110;SDS011;27766;52.174;5.456;2023-04-03T16:06:26;3.03;;;0.88;;
42110;SDS011;27766;52.174;5.456;2023-04-03T16:08:56;1.25;;;0.82;;
42110;SDS011;27766;52.174;5.456;2023-04-03T16:11:25;1.77;;;1.10;;
42110;SDS011;27766;52.174;5.456;2023-04-03T16:13:53;3.60;;;1.35;;
42110;SDS011;27766;52.174;5.456;2023-04-03T16:16:21;3.58;;;0.95;;
42110;SDS011;27766;52.174;5.456;2023-04-03T16:18:50;3.28;;;1.23;;
42110;SDS011;27766;52.174;5.456;2023-04-03T16:21:17;3.97;;;1.25;;
42110;SDS011;27766;52.174;5.456;2023-04-03T16:23:44;3.25;;;1.00;;
42110;SDS011;27766;52.174;5.456;2023-04-03T16:26:13;1.55;;;0.68;;
42110;SDS011;27766;52.174;5.456;2023-04-03T16:28:40;1.95;;;0.90;;
42110;SDS011;27766;52.174;5.456;2023-04-03T16:31:08;1.27;;;0.90;;
42110;SDS011;27766;52.174;5.456;2023-04-03T16:33:35;3.25;;;1.05;;
42110;SDS011;27766;52.174;5.456;2023-04-03T16:36:04;1.58;;;0.80;;
42110;SDS011;27766;52.174;5.456;2023-04-03T16:38:32;1.77;;;1.00;;
42110;SDS011;27766;52.174;5.456;2023-04-03T16:40:59;1.52;;;0.85;;
42110;SDS011;27766;52.174;5.456;2023-04-03T16:43:31;2.72;;;1.10;;
42110;SDS011;27766;52.174;5.456;2023-04-03T16:45:59;1.63;;;1.00;;
42110;SDS011;27766;52.174;5.456;2023-04-03T16:48:29;1.65;;;1.10;;
42110;SDS011;27766;52.174;5.456;2023-04-03T16:50:57;1.17;;;0.88;;
42110;SDS011;27766;52.174;5.456;2023-04-03T16:53:25;2.47;;;0.73;;
42110;SDS011;27766;52.174;5.456;2023-04-03T16:55:58;1.58;;;0.57;;